Time;durP1;ratioP1;P1;durP2;ratioP2;P2;SDS_P1;SDS_P2;PMS_P1;PMS_P2;Temp;Humidity;BMP_temperature;BMP_pressure;BME280_temperature;BME280_humidity;BME280_pressure;Samples;Min_cycle;Max_cycle;Signal;HPM_P1;HPM_P2
2022/01/01 00:01:47;;;;;;;27.55;15.18;;;11.50;99.90;;;;;;4972553;28;20475;-50
2022/01/01 00:04:12;;;;;;;30.37;13.63;;;11.50;99.90;;;;;;4972151;28;20384;-48
2022/01/01 00:06:38;;;;;;;31.97;14.73;;;11.50;99.90;;;;;;4971708;28;20680;-48
2022/01/01 00:09:04;;;;;;;32.53;14.77;;;11.50;99.90;;;;;;4972297;28;20459;-47
2022/01/01 00:11:30;;;;;;;28.00;13.93;;;11.50;99.90;;;;;;4970072;28;20412;-50
2022/01/01 00:13:55;;;;;;;33.87;13.30;;;11.50;99.90;;;;;;4970196;28;20427;-51
2022/01/01 00:16:21;;;;;;;31.13;13.88;;;11.50;99.90;;;;;;4970348;28;20515;-47
2022/01/01 00:18:46;;;;;;;30.77;13.30;;;11.50;99.90;;;;;;4969004;28;20482;-46
2022/01/01 00:21:12;;;;;;;33.53;13.97;;;11.50;99.90;;;;;;4971022;28;20400;-48
2022/01/01 00:23:37;;;;;;;33.20;13.60;;;11.50;99.90;;;;;;4971051;28;20388;-48
2022/01/01 00:26:03;;;;;;;28.90;13.35;;;11.50;99.90;;;;;;4972401;28;20385;-47
2022/01/01 00:28:28;;;;;;;28.67;13.07;;;11.50;99.90;;;;;;4971791;28;20466;-47
2022/01/01 00:30:54;;;;;;;28.47;14.07;;;11.50;99.90;;;;;;4974695;28;20403;-47
2022/01/01 00:33:19;;;;;;;31.55;13.65;;;11.50;99.90;;;;;;4973599;28;20447;-47
2022/01/01 00:35:45;;;;;;;30.23;13.90;;;11.50;99.90;;;;;;4972482;28;20388;-47
2022/01/01 00:38:11;;;;;;;32.33;14.40;;;11.50;99.90;;;;;;4973015;28;20431;-47
2022/01/01 00:40:36;;;;;;;31.63;13.90;;;11.50;99.90;;;;;;4971029;28;20514;-47
2022/01/01 00:43:02;;;;;;;31.07;13.10;;;11.50;99.90;;;;;;4970582;28;20460;-49
2022/01/01 00:45:27;;;;;;;27.33;12.10;;;11.50;99.90;;;;;;4969668;28;20642;-47
2022/01/01 00:47:53;;;;;;;29.92;12.38;;;11.50;99.90;;;;;;4969267;28;20382;-47
2022/01/01 00:50:18;;;;;;;29.73;12.17;;;11.50;99.90;;;;;;4970564;28;20885;-48
2022/01/01 00:52:44;;;;;;;31.93;12.27;;;11.50;99.90;;;;;;4968771;28;20400;-47
2022/01/01 00:55:10;;;;;;;28.98;12.00;;;11.50;99.90;;;;;;4970038;28;20418;-47
2022/01/01 00:57:37;;;;;;;33.67;11.70;;;11.50;99.90;;;;;;4969803;28;20721;-48
2022/01/01 01:00:04;;;;;;;28.00;11.15;;;11.50;99.90;;;;;;4969436;28;20414;-48
2022/01/01 01:02:31;;;;;;;26.10;11.55;;;11.50;99.90;;;;;;4970710;28;20399;-47
2022/01/01 01:04:57;;;;;;;27.45;11.50;;;11.50;99.90;;;;;;4971458;28;20514;-48
2022/01/01 01:07:22;;;;;;;21.67;10.63;;;11.50;99.90;;;;;;4971164;28;20804;-47
2022/01/01 01:09:48;;;;;;;31.67;11.60;;;11.50;99.90;;;;;;4970444;28;20693;-49
2022/01/01 01:12:13;;;;;;;24.20;10.82;;;11.50;99.90;;;;;;4968196;28;20411;-46
2022/01/01 01:14:41;;;;;;;29.17;11.15;;;11.50;99.90;;;;;;4969891;28;20400;-47
2022/01/01 01:17:08;;;;;;;27.53;10.63;;;11.50;99.90;;;;;;4968975;28;20566;-49
2022/01/01 01:19:33;;;;;;;27.85;11.15;;;11.40;99.90;;;;;;4967003;28;20882;-47
2022/01/01 01:21:59;;;;;;;23.73;10.50;;;11.50;99.90;;;;;;4966506;28;20404;-47
2022/01/01 01:24:26;;;;;;;30.90;11.03;;;11.50;99.90;;;;;;4967711;28;20390;-47
2022/01/01 01:26:53;;;;;;;30.55;11.02;;;11.50;99.90;;;;;;4968335;28;20700;-48
2022/01/01 01:29:19;;;;;;;28.02;11.48;;;11.50;99.90;;;;;;4968861;28;20411;-50
2022/01/01 01:31:50;;;;;;;28.13;10.40;;;11.50;99.90;;;;;;4973331;28;20418;-52
2022/01/01 01:34:16;;;;;;;26.48;11.30;;;11.50;99.90;;;;;;4972503;28;20812;-51
2022/01/01 01:36:43;;;;;;;26.35;10.65;;;11.50;99.90;;;;;;4973404;28;20392;-53
2022/01/01 01:39:12;;;;;;;25.55;10.90;;;11.50;99.90;;;;;;4974005;28;20412;-50
2022/01/01 01:41:42;;;;;;;25.98;10.48;;;11.50;99.90;;;;;;4974345;28;20400;-49
2022/01/01 01:44:33;;;;;;;19.88;10.10;;;11.50;99.90;;;;;;4972122;28;20400;-50
2022/01/01 01:47:14;;;;;;;27.88;10.20;;;11.50;99.90;;;;;;4973190;28;20832;-51
2022/01/01 01:49:40;;;;;;;27.02;11.02;;;11.50;99.90;;;;;;4974221;28;20502;-53
2022/01/01 01:52:11;;;;;;;26.53;10.47;;;11.50;99.90;;;;;;4975420;28;20391;-53
2022/01/01 01:54:37;;;;;;;25.05;9.80;;;11.50;99.90;;;;;;4975191;28;20501;-49
2022/01/01 01:57:08;;;;;;;25.13;9.88;;;11.50;99.90;;;;;;4976580;28;20424;-54
2022/01/01 01:59:36;;;;;;;26.50;10.55;;;11.60;99.90;;;;;;4976107;28;20404;-51
2022/01/01 02:02:02;;;;;;;25.08;10.02;;;11.60;99.90;;;;;;4975316;28;20691;-53
2022/01/01 02:04:28;;;;;;;24.65;10.65;;;11.50;99.90;;;;;;4972632;28;20396;-51
2022/01/01 02:06:54;;;;;;;23.97;10.03;;;11.50;99.90;;;;;;4971875;28;20466;-50
2022/01/01 02:09:19;;;;;;;24.23;9.52;;;11.50;99.90;;;;;;4970333;28;20403;-54
2022/01/01 02:11:46;;;;;;;20.90;9.93;;;11.60;99.90;;;;;;4969387;28;20465;-53
2022/01/01 02:19:25;;;;;;;23.92;9.88;;;11.60;99.90;;;;;;4968943;28;20447;-49
2022/01/01 02:21:53;;;;;;;25.60;9.90;;;11.60;99.90;;;;;;4968563;28;20523;-50
2022/01/01 02:24:18;;;;;;;20.30;9.13;;;11.60;99.90;;;;;;4968965;28;20427;-53
2022/01/01 02:26:44;;;;;;;22.20;9.37;;;11.60;99.90;;;;;;4972668;28;20695;-52
2022/01/01 02:29:10;;;;;;;22.75;9.50;;;11.60;99.90;;;;;;4970560;28;20487;-52
2022/01/01 02:31:36;;;;;;;22.92;9.13;;;11.70;99.90;;;;;;4970144;28;20408;-48
2022/01/01 02:34:08;;;;;;;23.70;9.38;;;11.70;99.90;;;;;;4972173;28;20752;-47
2022/01/01 02:36:37;;;;;;;23.60;9.90;;;11.70;99.90;;;;;;4971427;28;20407;-50
2022/01/01 02:39:11;;;;;;;23.27;9.25;;;11.70;99.90;;;;;;4970681;28;20506;-50
2022/01/01 02:41:37;;;;;;;26.40;10.40;;;11.70;99.90;;;;;;4972941;28;20542;-50
2022/01/01 02:44:05;;;;;;;23.83;9.93;;;11.70;99.90;;;;;;4972479;28;20479;-53
2022/01/01 02:46:31;;;;;;;21.13;9.05;;;11.70;99.90;;;;;;4972698;28;20502;-52
2022/01/01 02:48:56;;;;;;;19.73;9.37;;;11.70;99.90;;;;;;4972871;28;20492;-49
2022/01/01 02:51:22;;;;;;;21.15;10.07;;;11.70;99.90;;;;;;4972426;28;20718;-50
2022/01/01 02:53:47;;;;;;;28.45;9.73;;;11.70;99.90;;;;;;4972480;28;20416;-49
2022/01/01 02:56:13;;;;;;;22.73;9.90;;;11.70;99.90;;;;;;4973155;28;20506;-51
2022/01/01 02:58:40;;;;;;;24.27;9.70;;;11.70;99.90;;;;;;4972957;28;20480;-52
2022/01/01 03:01:05;;;;;;;21.08;9.18;;;11.70;99.90;;;;;;4974274;28;20407;-49
2022/01/01 03:03:31;;;;;;;25.93;10.17;;;11.70;99.90;;;;;;4975021;28;20401;-50
2022/01/01 03:05:56;;;;;;;26.67;10.47;;;11.70;99.90;;;;;;4973033;28;20384;-50
2022/01/01 03:08:22;;;;;;;22.13;10.05;;;11.70;99.90;;;;;;4972285;28;20442;-50
2022/01/01 03:10:49;;;;;;;24.00;10.40;;;11.70;99.90;;;;;;4971482;28;20859;-51
2022/01/01 03:13:15;;;;;;;27.80;11.55;;;11.70;99.90;;;;;;4973024;28;20685;-53
2022/01/01 03:15:41;;;;;;;28.33;11.33;;;11.70;99.90;;;;;;4973848;28;20680;-50
2022/01/01 03:18:07;;;;;;;24.17;11.13;;;11.70;99.90;;;;;;4973596;28;20733;-49
2022/01/01 03:20:32;;;;;;;26.43;11.00;;;11.70;99.90;;;;;;4974124;28;20518;-50
2022/01/01 03:22:58;;;;;;;23.13;10.48;;;11.70;99.90;;;;;;4974590;28;20765;-48
2022/01/01 03:25:23;;;;;;;25.80;11.30;;;11.70;99.90;;;;;;4973462;28;20391;-48
2022/01/01 03:27:49;;;;;;;25.53;10.67;;;11.70;99.90;;;;;;4973379;28;20517;-49
2022/01/01 03:30:15;;;;;;;26.10;10.38;;;11.70;99.90;;;;;;4973844;28;20480;-47
2022/01/01 03:32:40;;;;;;;24.42;11.07;;;11.70;99.90;;;;;;4970088;28;20789;-49
2022/01/01 03:35:06;;;;;;;22.80;10.90;;;11.70;99.90;;;;;;4971203;28;20407;-47
2022/01/01 03:37:32;;;;;;;23.77;10.77;;;11.70;99.90;;;;;;4972414;28;20400;-47
2022/01/01 03:39:57;;;;;;;23.93;11.23;;;11.70;99.90;;;;;;4971787;28;20691;-47
2022/01/01 03:42:23;;;;;;;33.65;12.23;;;11.70;99.90;;;;;;4971871;28;20404;-47
2022/01/01 03:44:48;;;;;;;30.83;11.83;;;11.70;99.90;;;;;;4972165;28;20495;-47
2022/01/01 03:47:14;;;;;;;25.02;10.90;;;11.70;99.90;;;;;;4973909;28;20520;-50
2022/01/01 03:49:40;;;;;;;24.90;11.75;;;11.70;99.90;;;;;;4974675;28;20440;-50
2022/01/01 03:52:07;;;;;;;27.98;12.02;;;11.70;99.90;;;;;;4973050;28;20642;-51
2022/01/01 03:54:34;;;;;;;23.65;11.38;;;11.80;99.90;;;;;;4970415;28;20412;-47
2022/01/01 03:57:00;;;;;;;25.25;11.13;;;11.80;99.90;;;;;;4972622;28;20462;-52
2022/01/01 03:59:25;;;;;;;26.50;11.03;;;11.80;99.90;;;;;;4973133;28;20416;-47
2022/01/01 04:01:51;;;;;;;25.35;11.32;;;11.80;99.90;;;;;;4974773;28;20507;-47
2022/01/01 04:04:17;;;;;;;28.95;11.98;;;11.80;99.90;;;;;;4973955;28;20537;-48
2022/01/01 04:06:43;;;;;;;29.52;11.70;;;11.70;99.90;;;;;;4974669;28;20467;-47
2022/01/01 04:09:08;;;;;;;30.73;12.00;;;11.80;99.90;;;;;;4973614;28;20407;-51
2022/01/01 04:11:34;;;;;;;27.40;11.80;;;11.80;99.90;;;;;;4974867;28;20404;-47
2022/01/01 04:13:59;;;;;;;24.80;11.82;;;11.80;99.90;;;;;;4974800;28;20391;-52
2022/01/01 04:16:25;;;;;;;29.53;12.20;;;11.80;99.90;;;;;;4974560;28;20677;-47
2022/01/01 04:18:50;;;;;;;31.27;12.97;;;11.80;99.90;;;;;;4973019;28;20427;-48
2022/01/01 04:21:16;;;;;;;31.25;13.18;;;11.80;99.90;;;;;;4970741;28;20392;-51
2022/01/01 04:23:43;;;;;;;25.80;11.77;;;11.80;99.90;;;;;;4971353;28;20432;-50
2022/01/01 04:26:10;;;;;;;31.42;12.25;;;11.80;99.90;;;;;;4972066;28;20853;-48
2022/01/01 04:28:36;;;;;;;26.08;12.98;;;11.80;99.90;;;;;;4970644;28;20473;-48
2022/01/01 04:31:02;;;;;;;30.00;13.00;;;11.70;99.90;;;;;;4972559;28;20758;-46
2022/01/01 04:33:28;;;;;;;30.75;13.30;;;11.80;99.90;;;;;;4971775;28;20399;-47
2022/01/01 04:35:53;;;;;;;28.03;14.07;;;11.80;99.90;;;;;;4972813;28;20673;-47
2022/01/01 04:38:36;;;;;;;29.90;13.77;;;11.80;99.90;;;;;;4973581;28;20397;-47
2022/01/01 04:41:06;;;;;;;33.35;13.98;;;11.80;99.90;;;;;;4975931;28;20415;-49
2022/01/01 04:43:31;;;;;;;29.35;14.07;;;11.70;99.90;;;;;;4974939;28;20418;-49
2022/01/01 04:45:57;;;;;;;33.00;14.50;;;11.70;99.90;;;;;;4974677;28;20428;-52
2022/01/01 04:48:23;;;;;;;26.73;13.57;;;11.70;99.90;;;;;;4974902;28;20395;-49
2022/01/01 04:50:48;;;;;;;29.10;14.00;;;11.80;99.90;;;;;;4974300;28;20680;-53
2022/01/01 04:53:17;;;;;;;26.63;14.02;;;11.70;99.90;;;;;;4973721;28;20399;-50
2022/01/01 04:55:43;;;;;;;28.25;14.48;;;11.80;99.90;;;;;;4973429;28;20467;-51
2022/01/01 04:58:08;;;;;;;33.00;14.82;;;11.80;99.90;;;;;;4972980;28;20388;-49
2022/01/01 05:00:34;;;;;;;30.03;15.03;;;11.80;99.90;;;;;;4972874;28;20415;-48
2022/01/01 05:02:59;;;;;;;34.97;14.93;;;11.80;99.90;;;;;;4972074;28;20396;-49
2022/01/01 05:05:25;;;;;;;29.40;15.18;;;11.80;99.90;;;;;;4971332;28;20388;-47
2022/01/01 05:07:51;;;;;;;36.07;16.10;;;11.80;99.90;;;;;;4971319;28;20458;-54
2022/01/01 05:10:17;;;;;;;34.08;15.88;;;11.80;99.90;;;;;;4971543;28;20402;-49
2022/01/01 05:12:43;;;;;;;33.17;16.93;;;11.80;99.90;;;;;;4972954;28;20431;-47
2022/01/01 05:15:09;;;;;;;37.10;16.85;;;11.70;99.90;;;;;;4972771;28;20482;-47
2022/01/01 05:17:35;;;;;;;37.42;16.73;;;11.70;99.90;;;;;;4972158;28;20667;-47
2022/01/01 05:20:00;;;;;;;31.48;15.82;;;11.70;99.90;;;;;;4972636;28;20413;-49
2022/01/01 05:22:26;;;;;;;35.75;16.80;;;11.70;99.90;;;;;;4973474;28;20403;-47
2022/01/01 05:24:56;;;;;;;34.05;17.00;;;11.70;99.90;;;;;;4971629;28;20400;-47
2022/01/01 05:27:22;;;;;;;30.58;16.77;;;11.70;99.90;;;;;;4971109;28;20831;-47
2022/01/01 05:29:47;;;;;;;37.92;17.58;;;11.70;99.90;;;;;;4972033;28;20396;-47
2022/01/01 05:32:13;;;;;;;36.13;18.10;;;11.70;99.90;;;;;;4971473;28;20466;-47
2022/01/01 05:34:39;;;;;;;34.75;17.42;;;11.70;99.90;;;;;;4971925;28;20396;-48
2022/01/01 05:37:05;;;;;;;32.88;16.55;;;11.70;99.90;;;;;;4971494;28;20484;-50
2022/01/01 05:39:31;;;;;;;31.48;16.85;;;11.70;99.90;;;;;;4970297;28;20670;-48
2022/01/01 05:41:57;;;;;;;33.75;16.83;;;11.80;99.90;;;;;;4970197;28;20871;-51
2022/01/01 05:44:22;;;;;;;38.23;18.57;;;11.80;99.90;;;;;;4971018;28;20427;-49
2022/01/01 05:46:50;;;;;;;35.97;16.60;;;11.80;99.90;;;;;;4971347;28;20416;-49
2022/01/01 05:49:16;;;;;;;35.63;18.42;;;11.80;99.90;;;;;;4969921;28;20406;-48
2022/01/01 05:51:41;;;;;;;31.13;16.42;;;11.80;99.90;;;;;;4969446;28;20456;-49
2022/01/01 05:54:07;;;;;;;39.25;17.02;;;11.70;99.90;;;;;;4966917;28;20423;-48
2022/01/01 05:56:32;;;;;;;31.63;16.73;;;11.70;99.90;;;;;;4968535;28;20392;-51
2022/01/01 05:58:58;;;;;;;40.40;17.80;;;11.70;99.90;;;;;;4968125;28;20696;-48
2022/01/01 06:01:24;;;;;;;34.92;17.58;;;11.70;99.90;;;;;;4967692;28;20878;-49
2022/01/01 06:03:49;;;;;;;39.78;17.77;;;11.70;99.90;;;;;;4967676;28;20440;-48
2022/01/01 06:06:15;;;;;;;33.43;17.47;;;11.70;99.90;;;;;;4965829;28;20389;-46
2022/01/01 06:08:40;;;;;;;32.70;17.23;;;11.70;99.90;;;;;;4966282;28;20384;-49
2022/01/01 06:11:06;;;;;;;33.60;16.67;;;11.70;99.90;;;;;;4967209;28;20391;-48
2022/01/01 06:13:32;;;;;;;38.67;18.08;;;11.70;99.90;;;;;;4968824;28;20490;-52
2022/01/01 06:15:57;;;;;;;36.80;17.60;;;11.70;99.90;;;;;;4968696;28;20392;-53
2022/01/01 06:18:23;;;;;;;35.03;17.07;;;11.70;99.90;;;;;;4971557;28;20479;-49
2022/01/01 06:20:48;;;;;;;35.93;17.70;;;11.70;99.90;;;;;;4972468;28;20412;-50
2022/01/01 06:23:14;;;;;;;34.93;16.27;;;11.80;99.90;;;;;;4973574;28;20677;-47
2022/01/01 06:25:39;;;;;;;34.33;16.63;;;11.80;99.90;;;;;;4974844;28;20395;-47
2022/01/01 06:28:05;;;;;;;36.53;16.77;;;11.70;99.90;;;;;;4975612;28;20384;-49
2022/01/01 06:30:35;;;;;;;38.17;17.23;;;11.70;99.90;;;;;;4975743;28;20510;-48
2022/01/01 06:33:11;;;;;;;36.75;16.65;;;11.70;99.90;;;;;;4974960;28;20819;-51
2022/01/01 06:35:39;;;;;;;33.00;16.30;;;11.70;99.90;;;;;;4975791;28;20395;-47
2022/01/01 06:38:04;;;;;;;32.22;16.05;;;11.70;99.90;;;;;;4973701;28;20396;-47
2022/01/01 06:40:30;;;;;;;34.90;16.35;;;11.70;99.90;;;;;;4974485;28;20427;-48
2022/01/01 06:42:55;;;;;;;36.83;16.70;;;11.70;99.90;;;;;;4976465;28;20730;-50
2022/01/01 06:45:21;;;;;;;33.33;15.55;;;11.70;99.90;;;;;;4974551;28;20390;-48
2022/01/01 06:47:46;;;;;;;35.03;15.47;;;11.70;99.90;;;;;;4974273;28;20398;-51
2022/01/01 06:50:12;;;;;;;36.83;15.70;;;11.70;99.90;;;;;;4974178;28;20407;-49
2022/01/01 06:52:44;;;;;;;28.05;15.20;;;11.70;99.90;;;;;;4973901;28;20388;-49
2022/01/01 06:55:12;;;;;;;36.50;16.02;;;11.70;99.90;;;;;;4975323;28;20903;-50
2022/01/01 06:57:41;;;;;;;30.92;14.95;;;11.70;99.90;;;;;;4957347;28;20384;-48
2022/01/01 07:00:08;;;;;;;34.35;14.88;;;11.70;99.90;;;;;;4959635;28;20412;-49
2022/01/01 07:02:41;;;;;;;28.55;14.32;;;11.70;99.90;;;;;;4959174;28;20396;-48
2022/01/01 07:05:08;;;;;;;33.93;15.23;;;11.70;99.90;;;;;;4977023;28;20608;-53
2022/01/01 07:07:34;;;;;;;30.05;14.25;;;11.70;99.90;;;;;;4976060;28;20684;-52
2022/01/01 07:09:59;;;;;;;36.20;15.43;;;11.70;99.90;;;;;;4958193;28;20754;-49
2022/01/01 07:12:25;;;;;;;27.88;14.82;;;11.70;99.90;;;;;;4976325;28;20400;-49
2022/01/01 07:14:50;;;;;;;34.08;14.07;;;11.70;99.90;;;;;;4959512;28;20396;-48
2022/01/01 07:17:16;;;;;;;35.60;15.00;;;11.70;99.90;;;;;;4975371;28;20471;-47
2022/01/01 07:19:42;;;;;;;36.22;15.15;;;11.70;99.90;;;;;;4957208;28;21043;-50
2022/01/01 07:22:07;;;;;;;33.53;14.27;;;11.70;99.90;;;;;;4972347;28;20388;-52
2022/01/01 07:24:33;;;;;;;33.27;13.93;;;11.70;99.90;;;;;;4971158;28;20402;-48
2022/01/01 07:26:58;;;;;;;31.70;13.63;;;11.70;99.90;;;;;;4954392;28;20787;-47
2022/01/01 07:29:24;;;;;;;31.10;13.67;;;11.70;99.90;;;;;;4953164;28;20415;-50
2022/01/01 07:31:53;;;;;;;32.03;14.13;;;11.80;99.90;;;;;;4956112;28;20408;-50
2022/01/01 07:34:21;;;;;;;33.25;13.93;;;11.70;99.90;;;;;;4973624;28;20813;-50
2022/01/01 07:36:47;;;;;;;33.13;14.52;;;11.80;99.90;;;;;;4956748;28;20419;-49
2022/01/01 07:39:13;;;;;;;31.55;14.20;;;11.70;99.90;;;;;;4959013;28;20444;-48
2022/01/01 07:41:39;;;;;;;31.77;14.30;;;11.80;99.90;;;;;;4976437;28;20439;-50
2022/01/01 07:44:05;;;;;;;32.08;14.70;;;11.70;99.90;;;;;;4957875;28;20863;-50
2022/01/01 07:46:31;;;;;;;34.33;14.57;;;11.70;99.90;;;;;;4958848;28;20404;-52
2022/01/01 07:48:57;;;;;;;39.38;15.50;;;11.70;99.90;;;;;;4959638;28;20807;-51
2022/01/01 07:51:23;;;;;;;36.33;15.93;;;11.70;99.90;;;;;;4975506;28;20447;-47
2022/01/01 07:53:48;;;;;;;41.13;15.75;;;11.70;99.90;;;;;;4958635;28;20407;-49
2022/01/01 07:56:14;;;;;;;34.60;15.40;;;11.70;99.90;;;;;;4975079;28;20415;-49
2022/01/01 07:58:39;;;;;;;36.35;15.73;;;11.70;99.90;;;;;;4974862;28;20392;-50
2022/01/01 08:01:05;;;;;;;34.78;15.80;;;11.70;99.90;;;;;;4975750;28;20812;-48
2022/01/01 08:03:30;;;;;;;36.93;16.37;;;11.70;99.90;;;;;;4975920;28;20396;-49
2022/01/01 08:05:56;;;;;;;37.83;16.90;;;11.80;99.90;;;;;;4975173;28;20696;-49
2022/01/01 08:08:22;;;;;;;33.55;15.77;;;11.80;99.90;;;;;;4974076;28;21008;-48
2022/01/01 08:10:48;;;;;;;35.10;15.77;;;11.70;99.90;;;;;;4973899;28;20430;-49
2022/01/01 08:13:22;;;;;;;38.35;16.38;;;11.70;99.90;;;;;;4972442;28;20406;-47
2022/01/01 08:15:48;;;;;;;35.08;15.38;;;11.80;99.90;;;;;;4971544;28;20688;-50
2022/01/01 08:18:13;;;;;;;34.28;16.13;;;11.70;99.90;;;;;;4973365;28;20400;-48
2022/01/01 08:20:39;;;;;;;35.67;15.97;;;11.80;99.90;;;;;;4970287;28;20431;-49
2022/01/01 08:23:05;;;;;;;34.88;16.08;;;11.80;99.90;;;;;;4970454;28;20458;-51
2022/01/01 08:25:30;;;;;;;36.03;16.73;;;11.80;99.90;;;;;;4969459;28;20392;-48
2022/01/01 08:27:56;;;;;;;35.73;16.40;;;11.80;99.90;;;;;;4969270;28;20649;-49
2022/01/01 08:30:21;;;;;;;35.70;17.23;;;11.70;99.90;;;;;;4970878;28;20507;-52
2022/01/01 08:32:47;;;;;;;39.28;17.67;;;11.70;99.90;;;;;;4971205;28;20395;-50
2022/01/01 08:35:12;;;;;;;43.87;18.70;;;11.70;99.90;;;;;;4971466;28;20404;-49
2022/01/01 08:37:38;;;;;;;41.23;18.63;;;11.70;99.90;;;;;;4973174;28;20395;-53
2022/01/01 08:40:04;;;;;;;42.22;18.90;;;11.70;99.90;;;;;;4970981;28;20424;-50
2022/01/01 08:42:30;;;;;;;45.13;18.85;;;11.70;99.90;;;;;;4972549;28;20388;-47
2022/01/01 08:44:55;;;;;;;39.50;18.07;;;11.70;99.90;;;;;;4973592;28;20395;-47
2022/01/01 08:47:24;;;;;;;43.40;19.52;;;11.70;99.90;;;;;;4972611;28;20412;-51
2022/01/01 08:49:52;;;;;;;40.45;18.45;;;11.70;99.90;;;;;;4971828;28;20384;-49
2022/01/01 08:52:17;;;;;;;47.67;20.33;;;11.70;99.90;;;;;;4970334;28;20395;-52
2022/01/01 08:54:43;;;;;;;38.43;18.83;;;11.70;99.90;;;;;;4961499;28;20428;-47
2022/01/01 08:57:09;;;;;;;46.75;19.63;;;11.70;99.90;;;;;;4953222;28;20627;-50
2022/01/01 08:59:35;;;;;;;44.25;19.63;;;11.70;99.90;;;;;;4970125;28;20450;-47
2022/01/01 09:02:01;;;;;;;42.80;19.42;;;11.80;99.90;;;;;;4953952;28;20758;-46
2022/01/01 09:04:26;;;;;;;44.85;19.55;;;11.80;99.90;;;;;;4956316;28;20482;-49
2022/01/01 09:06:52;;;;;;;42.28;19.95;;;11.80;99.90;;;;;;4955934;28;20392;-47
2022/01/01 09:09:17;;;;;;;47.13;21.10;;;11.70;99.90;;;;;;4957913;28;20404;-48
2022/01/01 09:11:43;;;;;;;43.57;20.97;;;11.70;99.90;;;;;;4973997;28;20408;-48
2022/01/01 09:14:09;;;;;;;45.88;21.95;;;11.80;99.90;;;;;;4956394;28;20400;-48
2022/01/01 09:16:34;;;;;;;46.75;22.65;;;11.80;99.90;;;;;;4957741;28;20407;-52
2022/01/01 09:19:00;;;;;;;42.43;21.07;;;11.80;99.90;;;;;;4956441;28;20422;-47
2022/01/01 09:21:27;;;;;;;48.78;22.52;;;11.90;99.90;;;;;;4954487;28;20976;-48
2022/01/01 09:23:54;;;;;;;47.72;22.85;;;11.90;99.90;;;;;;4972732;28;20399;-49
2022/01/01 09:26:21;;;;;;;53.50;23.37;;;11.90;99.90;;;;;;4955513;28;20710;-50
2022/01/01 09:28:46;;;;;;;50.27;24.40;;;11.90;99.90;;;;;;4955536;28;20396;-49
2022/01/01 09:31:12;;;;;;;61.50;25.77;;;11.80;99.90;;;;;;4954964;28;20403;-50
2022/01/01 09:33:37;;;;;;;48.50;24.60;;;11.80;99.90;;;;;;4950740;29;20398;-48
2022/01/01 09:36:05;;;;;;;52.85;25.77;;;11.90;99.90;;;;;;4936208;29;20397;-48
2022/01/01 09:38:33;;;;;;;59.17;27.35;;;11.90;99.90;;;;;;4951896;29;20390;-49
2022/01/01 09:40:59;;;;;;;62.25;27.77;;;11.90;99.90;;;;;;4936790;29;20709;-48
2022/01/01 09:43:27;;;;;;;59.90;29.08;;;11.90;99.90;;;;;;4935044;29;20672;-49
2022/01/01 09:45:54;;;;;;;61.20;28.70;;;11.90;99.90;;;;;;4933679;29;20606;-48
2022/01/01 09:48:22;;;;;;;57.97;28.70;;;11.90;99.90;;;;;;4933687;29;20402;-52
2022/01/01 09:50:49;;;;;;;58.15;29.27;;;11.90;99.90;;;;;;4949062;28;20394;-50
2022/01/01 09:53:17;;;;;;;62.88;31.55;;;11.90;99.90;;;;;;4934258;29;20786;-51
2022/01/01 09:55:43;;;;;;;64.68;31.10;;;11.90;99.90;;;;;;4971959;28;20501;-48
2022/01/01 09:58:08;;;;;;;65.32;32.78;;;11.90;99.90;;;;;;4973005;28;20728;-48
2022/01/01 10:00:34;;;;;;;68.50;34.53;;;11.90;99.90;;;;;;4972384;28;20416;-48
2022/01/01 10:03:00;;;;;;;66.87;34.03;;;11.90;99.90;;;;;;4973865;28;20514;-49
2022/01/01 10:05:25;;;;;;;64.90;34.45;;;11.90;99.90;;;;;;4972136;28;20447;-51
2022/01/01 10:07:51;;;;;;;67.03;35.15;;;11.90;99.90;;;;;;4975411;28;20400;-50
2022/01/01 10:10:23;;;;;;;69.93;37.27;;;11.90;99.90;;;;;;4978979;28;20407;-49
2022/01/01 10:12:49;;;;;;;60.00;33.13;;;11.90;99.90;;;;;;4978888;28;20399;-49
2022/01/01 10:15:15;;;;;;;68.22;37.22;;;12.00;99.90;;;;;;4978958;28;20816;-54
2022/01/01 10:17:41;;;;;;;71.38;39.28;;;12.00;99.90;;;;;;4978803;28;20400;-48
2022/01/01 10:20:07;;;;;;;69.57;38.75;;;12.00;99.90;;;;;;4978040;28;20503;-49
2022/01/01 10:22:35;;;;;;;74.82;39.80;;;12.00;99.90;;;;;;4978700;28;20790;-51
2022/01/01 10:28:15;;;;;;;79.68;40.97;;;12.00;99.90;;;;;;4978541;28;20458;-50
2022/01/01 10:30:41;;;;;;;77.05;41.45;;;12.00;99.90;;;;;;4978494;28;20404;-48
2022/01/01 10:33:18;;;;;;;80.10;41.97;;;12.00;99.90;;;;;;4977334;28;20658;-49
2022/01/01 10:35:46;;;;;;;76.05;42.08;;;12.00;99.90;;;;;;4965207;28;20535;-49
2022/01/01 10:38:14;;;;;;;80.15;42.95;;;12.00;99.90;;;;;;4978005;28;20399;-49
2022/01/01 10:40:40;;;;;;;72.57;41.43;;;12.00;99.90;;;;;;4978081;28;20512;-48
2022/01/01 10:43:06;;;;;;;71.10;40.88;;;12.00;99.90;;;;;;4978391;28;20400;-49
2022/01/01 10:45:47;;;;;;;72.57;41.70;;;12.00;99.90;;;;;;4977844;28;20396;-51
2022/01/01 10:48:41;;;;;;;77.25;42.30;;;12.00;99.90;;;;;;4977655;28;20419;-47
2022/01/01 10:51:09;;;;;;;73.68;41.45;;;12.10;99.90;;;;;;4977778;28;20499;-48
2022/01/01 10:53:36;;;;;;;71.82;42.00;;;12.00;99.90;;;;;;4978192;28;20400;-47
2022/01/01 10:56:04;;;;;;;77.88;42.03;;;12.00;99.90;;;;;;4950563;28;20406;-48
2022/01/01 10:58:34;;;;;;;78.00;40.50;;;12.10;99.90;;;;;;4961095;28;20781;-51
2022/01/01 11:01:10;;;;;;;71.72;41.42;;;12.00;99.90;;;;;;4960394;28;20416;-48
2022/01/01 11:03:41;;;;;;;78.45;42.17;;;12.00;99.90;;;;;;4955831;28;20428;-49
2022/01/01 11:06:10;;;;;;;72.15;40.67;;;12.00;99.90;;;;;;4978213;28;20388;-50
2022/01/01 11:08:37;;;;;;;74.03;39.17;;;12.00;99.90;;;;;;4960036;28;20983;-49
2022/01/01 11:11:03;;;;;;;66.55;37.33;;;12.00;99.90;;;;;;4952745;28;20401;-51
2022/01/01 11:13:31;;;;;;;65.22;35.88;;;12.00;99.90;;;;;;4961480;28;20390;-50
2022/01/01 11:15:57;;;;;;;58.45;33.25;;;11.90;99.90;;;;;;4940736;29;20414;-48
2022/01/01 11:18:25;;;;;;;62.47;36.30;;;12.00;99.90;;;;;;4947007;28;20466;-48
2022/01/01 11:20:51;;;;;;;64.70;35.45;;;12.00;99.90;;;;;;4944141;29;20418;-50
2022/01/01 11:23:19;;;;;;;59.38;33.22;;;12.00;99.90;;;;;;4967083;28;20436;-49
2022/01/01 11:25:45;;;;;;;54.67;31.42;;;12.00;99.90;;;;;;4959333;28;20400;-48
2022/01/01 11:28:13;;;;;;;49.70;30.02;;;12.00;99.90;;;;;;4957693;28;20402;-49
2022/01/01 11:30:57;;;;;;;52.95;30.08;;;12.10;99.90;;;;;;4940902;29;20405;-48
2022/01/01 11:33:51;;;;;;;50.40;28.65;;;12.10;99.90;;;;;;4949285;28;20404;-48
2022/01/01 11:36:20;;;;;;;47.17;26.90;;;12.10;99.90;;;;;;4952592;29;20471;-51
2022/01/01 11:38:48;;;;;;;46.55;26.70;;;12.30;99.90;;;;;;4941601;29;20416;-48
2022/01/01 11:41:17;;;;;;;43.17;25.73;;;12.30;99.90;;;;;;4957939;28;20480;-49
2022/01/01 11:43:53;;;;;;;43.00;24.73;;;12.30;99.90;;;;;;4956366;28;20418;-48
2022/01/01 11:46:29;;;;;;;;;;;12.30;99.90;;;;;;4908847;28;20023;-48
2022/01/01 11:48:56;;;;;;;;;;;12.20;99.90;;;;;;4978595;28;19910;-47
2022/01/01 11:51:35;;;;;;;;;;;12.20;99.90;;;;;;4949353;28;19910;-50
2022/01/01 11:54:03;;;;;;;;;;;12.20;99.90;;;;;;4957315;28;19925;-50
2022/01/01 11:56:49;;;;;;;;;;;12.10;99.90;;;;;;4978018;28;19969;-50
2022/01/01 11:59:31;;;;;;;;;;;12.10;99.90;;;;;;4970053;28;19969;-48
2022/01/01 12:02:02;;;;;;;;;;;12.10;99.90;;;;;;4960561;28;19973;-47
2022/01/01 12:04:38;;;;;;;;;;;12.10;99.90;;;;;;4976855;28;19918;-52
2022/01/01 12:07:12;;;;;;;;;;;12.10;99.90;;;;;;4958313;29;19914;-50
2022/01/01 12:09:56;;;;;;;;;;;12.10;99.90;;;;;;4964239;28;20301;-50
2022/01/01 12:12:42;;;;;;;;;;;12.10;99.90;;;;;;4973163;28;19919;-49
2022/01/01 12:15:09;;;;;;;;;;;12.20;99.90;;;;;;4971896;28;19910;-50
2022/01/01 12:17:44;;;;;;;;;;;12.20;99.90;;;;;;4971918;28;20160;-51
2022/01/01 12:20:14;;;;;;;;;;;12.20;99.90;;;;;;4971883;28;19910;-52
2022/01/01 12:22:42;;;;;;;;;;;12.20;99.90;;;;;;4973980;28;19914;-49
2022/01/01 12:25:07;;;;;;;;;;;12.20;99.90;;;;;;4971849;28;19916;-50
2022/01/01 12:27:41;;;;;;;;;;;12.20;99.90;;;;;;4973880;28;19906;-47
2022/01/01 12:30:07;;;;;;;;;;;12.20;99.90;;;;;;4974440;28;19906;-50
2022/01/01 12:32:36;;;;;;;;;;;12.20;99.90;;;;;;4973081;28;19972;-48
2022/01/01 12:35:07;;;;;;;39.27;19.57;;;12.20;99.90;;;;;;4972204;28;20000;-49
2022/01/01 12:37:37;;;;;;;44.65;24.77;;;12.30;99.90;;;;;;4969079;28;20439;-50
2022/01/01 12:40:08;;;;;;;35.67;22.10;;;12.20;99.90;;;;;;4970739;28;20499;-50
2022/01/01 12:42:35;;;;;;;39.03;23.75;;;12.30;99.90;;;;;;4971981;28;20466;-52